Latest Weather Observations for Coconut Island

IDQ60801

Issued at 4:35 pm EST Sunday 26 October 2014 (issued every 30 minutes, with the page automatically refreshed every 10 minutes)

About weather observations | Map of weather stations | Latest weather observations for QLD | Other Formats
Station Details ID: 027054 Name: COCONUT ISLAND Lat: -10.05 Lon: 143.07 Height: 3.5 m
Data from the previous 72 hours. | See also: Recent months at Coconut Island
Date/Time
EST
Temp
°C
App
Temp
°C
Dew
Point
Rel
Hum
%
Delta-T
°C
Wind Press
QNH
hPa
Press
MSL
hPa
Rain
since 9 am
mm
Dir
 
Spd
km/h
Gust
km/h
Spd
kts
Gust
kts
26/04:30pm 28.6 - - - - SSE 7 13 4 7 1010.7 1010.6 0.0
26/04:00pm 29.4 - - - - SSE 7 11 4 6 1010.6 1010.5 0.0
26/03:30pm 30.3 - - - - SE 7 15 4 8 1010.7 1010.6 0.0
26/03:00pm 30.9 - - - - SE 7 15 4 8 1011.1 1011.0 0.0
26/02:30pm 31.0 - - - - SSE 6 9 3 5 1011.6 1011.5 0.0
26/02:00pm 30.9 - - - - SE 6 11 3 6 1011.8 1011.7 0.0
26/01:30pm 31.5 - - - - SE 6 9 3 5 1012.1 1012.0 0.0
26/01:00pm 31.4 - - - - SE 7 17 4 9 1012.4 1012.3 0.0
26/12:30pm 31.3 - - - - SE 7 15 4 8 1012.8 1012.7 0.0
26/12:00pm 31.5 - - - - ESE 9 19 5 10 1013.1 1013.0 0.0
26/11:30am 31.4 - - - - ESE 9 20 5 11 1013.4 1013.3 0.0
26/11:00am 30.7 - - - - ESE 11 19 6 10 1013.5 1013.4 0.0
26/10:30am 30.2 - - - - ESE 11 20 6 11 1013.8 1013.7 0.0
26/10:00am 29.1 - - - - SE 9 24 5 13 1014.0 1013.9 0.0
26/09:30am 28.2 - - - - SE 9 17 5 9 1014.4 1014.3 0.0
26/09:00am 27.6 - - - - SE 6 9 3 5 1014.2 1014.1 0.0
26/08:30am 27.3 - - - - SE 7 15 4 8 1014.2 1014.1 0.0
26/08:00am 26.3 - - - - SE 7 13 4 7 1014.1 1014.0 0.0
26/07:30am 25.6 - - - - SE 7 13 4 7 1013.9 1013.8 0.0
26/07:00am 24.8 - - - - SSE 7 15 4 8 1013.4 1013.3 0.0
26/06:30am 24.5 - - - - SSE 7 13 4 7 1013.2 1013.1 0.0
26/06:00am 24.4 - - - - SSE 9 13 5 7 1012.7 1012.6 0.0
26/05:30am 24.2 - - - - SSE 7 13 4 7 1012.5 1012.4 0.0
26/05:00am 23.9 - - - - SSE 7 11 4 6 1012.4 1012.3 0.0
26/04:30am 24.2 - - - - SSE 7 11 4 6 1012.4 1012.3 0.0
26/04:00am 24.3 - - - - SSE 7 15 4 8 1012.3 1012.2 0.0
26/03:30am 24.4 - - - - SSE 7 13 4 7 1012.3 1012.2 0.0
26/03:00am 24.7 - - - - SSE 9 11 5 6 1012.2 1012.1 0.0
26/02:30am 24.8 - - - - SSE 9 13 5 7 1012.5 1012.4 0.0
26/02:00am 25.0 - - - - SE 9 15 5 8 1012.9 1012.8 0.0
26/01:30am 24.9 - - - - SSE 9 13 5 7 1013.1 1013.0 0.0
26/01:00am 25.1 - - - - SSE 9 11 5 6 1013.4 1013.3 0.0
26/12:30am 25.1 - - - - SSE 7 11 4 6 1013.8 1013.7 0.0
26/12:00am 25.0 - - - - SSE 9 11 5 6 1014.4 1014.3 0.0
 
Date/Time
EST
Temp
°C
App
Temp
°C
Dew
Point
Rel
Hum
%
Delta-T
°C
Wind Press
QNH
hPa
Press
MSL
hPa
Rain
since 9 am
mm
Dir
 
Spd
km/h
Gust
km/h
Spd
kts
Gust
kts
25/11:30pm 24.9 - - - - SSE 9 13 5 7 1014.5 1014.4 0.0
25/11:00pm 24.9 - - - - SSE 9 17 5 9 1014.6 1014.5 0.0
25/10:30pm 25.1 - - - - SE 9 15 5 8 1014.7 1014.6 0.0
25/10:00pm 25.2 - - - - SE 9 15 5 8 1014.8 1014.7 0.0
25/09:30pm 25.3 - - - - SE 9 20 5 11 1014.5 1014.4 0.0
25/09:00pm 25.3 - - - - SSE 9 13 5 7 1014.1 1014.0 0.0
25/08:30pm 25.2 - - - - SSE 9 13 5 7 1013.9 1013.8 0.0
25/08:00pm 25.2 - - - - SSE 9 13 5 7 1013.6 1013.5 0.0
25/07:30pm 25.1 - - - - SSE 11 15 6 8 1013.3 1013.2 0.0
25/07:00pm 25.4 - - - - SSE 11 17 6 9 1012.9 1012.8 0.0
25/06:30pm 25.7 - - - - SSE 9 13 5 7 1012.6 1012.5 0.0
25/06:00pm 26.3 - - - - SSE 11 15 6 8 1012.3 1012.2 0.0
25/05:30pm 27.0 - - - - SSE 11 15 6 8 1012.0 1011.9 0.0
25/05:00pm 28.1 - - - - SSE 9 15 5 8 1011.8 1011.7 0.0
25/04:30pm 28.2 - - - - SSE 9 13 5 7 1011.6 1011.5 0.0
25/04:00pm 28.8 - - - - SSE 7 13 4 7 1011.7 1011.6 0.0
25/03:30pm 29.0 - - - - SSE 9 13 5 7 1011.8 1011.7 0.0
25/03:00pm 29.5 - - - - SSE 7 11 4 6 1012.1 1012.0 0.0
25/02:30pm 30.3 - - - - SSE 7 13 4 7 1012.4 1012.3 0.0
25/02:00pm 29.7 - - - - SSE 7 11 4 6 1012.5 1012.4 0.0
25/01:30pm 30.4 - - - - SSE 9 13 5 7 1012.8 1012.7 0.0
25/01:00pm 30.7 - - - - SE 7 13 4 7 1013.1 1013.0 0.0
25/12:30pm 30.7 - - - - SSE 9 15 5 8 1013.4 1013.3 0.0
25/12:00pm 30.3 - - - - SE 9 17 5 9 1013.8 1013.7 0.0
25/11:30am 29.9 - - - - SE 9 17 5 9 1014.2 1014.1 0.0
25/11:00am 29.8 - - - - SE 9 17 5 9 1014.5 1014.4 0.0
25/10:30am 29.4 - - - - SE 9 19 5 10 1014.7 1014.6 0.0
25/10:00am 29.3 - - - - SE 9 17 5 9 1014.8 1014.7 0.0
25/09:30am 28.8 - - - - SE 9 20 5 11 1015.0 1014.9 0.0
25/09:00am 28.7 - - - - SE 9 19 5 10 1015.2 1015.1 0.0
25/08:30am 27.7 - - - - SE 9 20 5 11 1015.1 1015.0 0.0
25/08:00am 26.9 - - - - SE 11 24 6 13 1014.9 1014.8 0.0
25/07:30am 25.2 - - - - SE 9 19 5 10 1014.4 1014.3 0.0
25/07:00am 24.4 - - - - SE 9 15 5 8 1014.0 1013.9 0.0
25/06:30am 24.0 - - - - SSE 9 13 5 7 1013.6 1013.5 0.0
25/06:00am 23.8 - - - - SE 9 19 5 10 1013.1 1013.0 0.0
25/05:30am 23.8 - - - - SE 9 15 5 8 1013.0 1012.9 0.0
25/05:00am 24.0 - - - - SSE 9 15 5 8 1012.7 1012.6 0.0
25/04:30am 24.1 - - - - SE 9 17 5 9 1012.6 1012.5 0.0
25/04:00am 24.2 - - - - SSE 9 13 5 7 1012.5 1012.4 0.0
25/03:30am 24.4 - - - - SE 9 13 5 7 1012.5 1012.4 0.0
25/03:00am 24.7 - - - - SE 9 17 5 9 1012.6 1012.5 0.0
25/02:30am 24.9 - - - - SE 9 20 5 11 1012.8 1012.7 0.0
25/02:00am 25.1 - - - - SSE 9 15 5 8 1013.1 1013.0 0.0
25/01:30am 25.1 - - - - SE 9 19 5 10 1013.4 1013.3 0.0
25/01:00am 25.1 - - - - SE 9 19 5 10 1013.7 1013.6 0.0
25/12:30am 25.3 - - - - SE 11 20 6 11 1013.9 1013.8 0.0
25/12:00am 25.3 - - - - SE 9 17 5 9 1014.1 1014.0 0.0
 
Date/Time
EST
Temp
°C
App
Temp
°C
Dew
Point
Rel
Hum
%
Delta-T
°C
Wind Press
QNH
hPa
Press
MSL
hPa
Rain
since 9 am
mm
Dir
 
Spd
km/h
Gust
km/h
Spd
kts
Gust
kts
24/11:30pm 25.3 - - - - SE 9 22 5 12 1014.4 1014.3 0.0
24/11:00pm 25.3 - - - - SE 11 24 6 13 1014.6 1014.5 0.0
24/10:30pm 25.3 - - - - SE 11 19 6 10 1014.5 1014.4 0.0
24/10:00pm 25.3 - - - - SE 11 20 6 11 1014.4 1014.3 0.0
24/09:30pm 25.3 - - - - SE 13 22 7 12 1014.3 1014.2 0.0
24/09:00pm 25.6 - - - - SE 11 20 6 11 1014.0 1013.9 0.0
24/08:30pm 25.6 - - - - SE 9 17 5 9 1013.6 1013.5 0.0
24/08:00pm 25.8 - - - - SE 11 19 6 10 1013.3 1013.2 0.0
24/07:30pm 25.6 - - - - SE 9 19 5 10 1012.9 1012.8 0.0
24/07:00pm 25.7 - - - - SE 9 17 5 9 1012.6 1012.5 0.0
24/06:30pm 26.2 - - - - SE 9 17 5 9 1012.5 1012.4 0.0
24/06:00pm 27.0 - - - - SE 7 15 4 8 1012.3 1012.2 0.0
24/05:30pm 27.7 - - - - SSE 9 15 5 8 1011.7 1011.6 0.0
24/05:00pm 28.4 - - - - SE 7 15 4 8 1011.5 1011.4 0.0
24/04:30pm 29.3 - - - - SE 9 15 5 8 1011.4 1011.3 0.0
24/04:00pm 29.3 - - - - SSE 9 13 5 7 1011.5 1011.4 0.0
24/03:30pm 29.7 - - - - SSE 7 13 4 7 1011.6 1011.5 0.0
24/03:00pm 30.3 - - - - SSE 9 19 5 10 1011.8 1011.7 0.0
24/02:30pm 30.4 - - - - SSE 9 17 5 9 1011.7 1011.6 0.0
24/02:00pm 30.8 - - - - SSE 9 13 5 7 1011.9 1011.8 0.0
24/01:30pm 31.5 - - - - SE 9 15 5 8 1012.2 1012.1 0.0
24/01:00pm 31.2 - - - - SE 7 19 4 10 1012.8 1012.7 0.0
24/12:30pm 30.8 - - - - SE 7 15 4 8 1013.4 1013.3 0.0
24/12:00pm 30.7 - - - - SE 9 22 5 12 1013.9 1013.8 0.0
24/11:30am 30.6 - - - - ESE 11 22 6 12 1014.4 1014.3 0.0
24/11:00am 29.9 - - - - SE 9 15 5 8 1014.7 1014.6 0.0
24/10:30am 30.2 - - - - SE 11 22 6 12 1014.7 1014.6 0.0
24/10:00am 29.4 - - - - SE 9 19 5 10 1015.1 1015.0 0.0
24/09:30am 28.9 - - - - ESE 11 24 6 13 1015.4 1015.3 0.0
24/09:00am 28.7 - - - - ESE 15 24 8 13 1015.3 1015.2 0.0
24/08:30am 28.0 - - - - ESE 11 24 6 13 1015.2 1015.1 0.0
24/08:00am 26.8 - - - - SE 11 22 6 12 1015.0 1014.9 0.0
24/07:30am 25.5 - - - - SE 9 19 5 10 1014.6 1014.5 0.0
24/07:00am 24.9 - - - - SE 9 17 5 9 1014.4 1014.3 0.0
24/06:30am 24.4 - - - - SE 9 19 5 10 1014.0 1013.9 0.0
24/06:00am 24.2 - - - - SE 9 15 5 8 1013.7 1013.6 0.0
24/05:30am 24.2 - - - - SE 11 20 6 11 1013.3 1013.2 0.0
24/05:00am 24.4 - - - - SE 9 15 5 8 1013.1 1013.0 0.0
24/04:30am 24.5 - - - - SE 11 24 6 13 1012.7 1012.6 0.0
24/04:00am 24.4 - - - - SE 11 24 6 13 1012.4 1012.3 0.0
24/03:30am 24.6 - - - - SE 9 17 5 9 1012.2 1012.1 0.0
24/03:00am 24.8 - - - - SE 11 24 6 13 1012.2 1012.1 0.0
24/02:30am 24.9 - - - - SE 11 26 6 14 1012.5 1012.4 0.0
24/02:00am 25.0 - - - - SE 9 19 5 10 1012.7 1012.6 0.0
24/01:30am 25.1 - - - - SE 11 24 6 13 1013.0 1012.9 0.0
24/01:00am 25.2 - - - - SE 11 20 6 11 1013.3 1013.2 0.0
24/12:30am 25.1 - - - - SE 11 20 6 11 1013.4 1013.3 0.0
24/12:00am 25.2 - - - - SE 11 24 6 13 1013.7 1013.6 0.0
 
Date/Time
EST
Temp
°C
App
Temp
°C
Dew
Point
Rel
Hum
%
Delta-T
°C
Wind Press
QNH
hPa
Press
MSL
hPa
Rain
since 9 am
mm
Dir
 
Spd
km/h
Gust
km/h
Spd
kts
Gust
kts
23/11:30pm 25.2 - - - - SE 11 20 6 11 1014.1 1014.0 0.0
23/11:00pm 25.2 - - - - SE 11 20 6 11 1014.4 1014.3 0.0
23/10:30pm 25.3 - - - - SE 11 20 6 11 1014.5 1014.4 0.0
23/10:00pm 25.2 - - - - SE 11 22 6 12 1014.4 1014.3 0.0
23/09:30pm 25.3 - - - - SSE 13 22 7 12 1014.0 1013.9 0.0
23/09:00pm 25.4 - - - - SE 11 20 6 11 1013.9 1013.8 0.0
23/08:30pm 25.4 - - - - SSE 13 19 7 10 1013.6 1013.5 0.0
23/08:00pm 25.6 - - - - SSE 13 19 7 10 1013.3 1013.2 0.0
23/07:30pm 25.8 - - - - SSE 15 20 8 11 1013.0 1012.9 0.0
23/07:00pm 26.1 - - - - SSE 15 20 8 11 1012.8 1012.7 0.0
23/06:30pm 26.1 - - - - SSE 13 19 7 10 1012.6 1012.5 0.0
23/06:00pm 26.4 - - - - SSE 13 20 7 11 1012.2 1012.1 0.0
23/05:30pm 27.0 - - - - SSE 13 19 7 10 1011.7 1011.6 0.0
23/05:00pm 27.2 - - - - SSE 15 22 8 12 1011.5 1011.4 0.0

Other Formats:

Comma delimited format used in spreadsheet applications
http://www.bom.gov.au/fwo/IDQ60801/IDQ60801.94182.axf

JavaScript Object Notation format (JSON) in row-major order
http://www.bom.gov.au/fwo/IDQ60801/IDQ60801.94182.json